createdAt,value
2023-01-17T00:00:43.535Z,93303.66
2023-01-17T00:01:55.455Z,93307.41
2023-01-17T00:02:58.027Z,93302.47
2023-01-17T00:04:16.161Z,93335.13
2023-01-17T00:05:36.391Z,93310.97
2023-01-17T00:07:05.606Z,93311.72
2023-01-17T00:08:26.892Z,93317.34
2023-01-17T00:09:50.727Z,93324.44
2023-01-17T00:10:55.588Z,93324.78
2023-01-17T00:11:58.452Z,93331.69
2023-01-17T00:13:05.401Z,93332.69
2023-01-17T00:14:10.512Z,93324.28
2023-01-17T00:15:17.019Z,93338.78
2023-01-17T00:16:21.938Z,93318.56
2023-01-17T00:17:29.147Z,93345.22
2023-01-17T00:18:34.405Z,93332.03
2023-01-17T00:19:51.529Z,93336.47
2023-01-17T00:21:08.773Z,93352.50
2023-01-17T00:22:26.711Z,93330.72
2023-01-17T00:23:43.821Z,93346.59
2023-01-17T00:25:03.216Z,93332.34
2023-01-17T00:26:09.867Z,93348.81
2023-01-17T00:27:14.496Z,93337.81
2023-01-17T00:28:16.858Z,93330.91
2023-01-17T00:29:18.646Z,93325.81
2023-01-17T00:30:20.808Z,93331.06
2023-01-17T00:31:22.682Z,93330.09
2023-01-17T00:32:27.274Z,93325.34
2023-01-17T00:33:29.584Z,93321.88
2023-01-17T00:34:31.569Z,93341.44
2023-01-17T00:35:34.570Z,93326.31
2023-01-17T00:36:36.429Z,93343.25
2023-01-17T00:37:38.236Z,93330.31
2023-01-17T00:38:41.046Z,93338.78
2023-01-17T00:39:42.843Z,93345.53
2023-01-17T00:40:46.304Z,93328.59
2023-01-17T00:41:48.196Z,93339.06
2023-01-17T00:42:50.012Z,93337.34
2023-01-17T00:44:07.250Z,93334.84
2023-01-17T00:45:25.318Z,93341.91
2023-01-17T00:46:42.907Z,93332.31
2023-01-17T00:48:03.321Z,93337.56
2023-01-17T00:49:21.201Z,93341.22
2023-01-17T00:50:38.513Z,93346.13
2023-01-17T00:51:57.931Z,93342.09
2023-01-17T00:53:19.432Z,93363.22
2023-01-17T00:54:36.663Z,93361.41
2023-01-17T00:55:53.923Z,93353.59
2023-01-17T00:57:11.352Z,93363.16
2023-01-17T00:58:29.242Z,93359.03
2023-01-17T00:59:46.699Z,93359.03
2023-01-17T01:01:06.213Z,93366.84
2023-01-17T01:02:23.360Z,93353.13
2023-01-17T01:03:43.506Z,93372.66
2023-01-17T01:05:00.528Z,93367.75
2023-01-17T01:06:20.273Z,93363.31
2023-01-17T01:07:37.559Z,93370.97
2023-01-17T01:08:54.959Z,93374.50
2023-01-17T01:10:13.493Z,93371.09
2023-01-17T01:11:33.805Z,93374.97
2023-01-17T01:12:50.901Z,93373.19
2023-01-17T01:14:08.171Z,93365.19
2023-01-17T01:15:25.414Z,93375.72
2023-01-17T01:16:42.575Z,93381.56
2023-01-17T01:18:02.371Z,93383.19
2023-01-17T01:19:22.460Z,93374.66
2023-01-17T01:20:39.573Z,93385.00
2023-01-17T01:21:56.924Z,93389.28
2023-01-17T01:23:14.009Z,93386.72
2023-01-17T01:24:31.329Z,93391.81
2023-01-17T01:25:48.408Z,93389.53
2023-01-17T01:27:05.597Z,93391.22
2023-01-17T01:28:26.468Z,93390.09
2023-01-17T01:29:43.497Z,93393.72
2023-01-17T01:31:00.591Z,93385.31
2023-01-17T01:32:17.905Z,93402.28
2023-01-17T01:33:19.843Z,93389.44
2023-01-17T01:34:27.507Z,93393.72
2023-01-17T01:35:30.102Z,93397.00
2023-01-17T01:36:34.826Z,93398.75
2023-01-17T01:37:36.821Z,93399.56
2023-01-17T01:38:41.970Z,93399.56
2023-01-17T01:39:43.959Z,93397.25
2023-01-17T01:40:50.714Z,93408.19
2023-01-17T01:41:53.786Z,93399.88
2023-01-17T01:43:01.330Z,93414.09
2023-01-17T01:44:03.475Z,93415.00
2023-01-17T01:45:19.885Z,93405.72
2023-01-17T01:46:28.844Z,93414.25
2023-01-17T01:47:36.115Z,93404.88
2023-01-17T01:48:45.637Z,93405.81
2023-01-17T01:49:51.381Z,93412.28
2023-01-17T01:50:56.734Z,93411.63
2023-01-17T01:52:01.859Z,93409.81
2023-01-17T01:53:10.181Z,93408.09
2023-01-17T01:54:19.730Z,93418.38
2023-01-17T01:55:26.323Z,93421.66
2023-01-17T01:56:32.826Z,93410.91
2023-01-17T01:57:41.044Z,93415.06
2023-01-17T01:58:51.224Z,93407.75
2023-01-17T01:59:57.745Z,93417.13
2023-01-17T02:01:03.750Z,93412.28
2023-01-17T02:02:07.644Z,93400.28
2023-01-17T02:03:17.403Z,93414.91
2023-01-17T02:04:21.922Z,93405.22
2023-01-17T02:05:31.115Z,93412.28
2023-01-17T02:06:36.833Z,93409.81
2023-01-17T02:07:48.765Z,93411.63
2023-01-17T02:08:50.564Z,93403.22
2023-01-17T02:09:55.382Z,93408.91
2023-01-17T02:10:57.535Z,93400.63
2023-01-17T02:12:05.689Z,93402.91
2023-01-17T02:13:08.780Z,93397.75
2023-01-17T02:14:18.667Z,93396.06
2023-01-17T02:15:24.338Z,93404.72
2023-01-17T02:16:47.150Z,93399.78
2023-01-17T02:17:59.596Z,93399.63
2023-01-17T02:19:21.818Z,93402.41
2023-01-17T02:20:58.858Z,93400.84
2023-01-17T02:22:27.633Z,93402.97
2023-01-17T02:23:48.189Z,93398.69
2023-01-17T02:25:21.997Z,93396.31
2023-01-17T02:26:37.794Z,93404.09
2023-01-17T02:28:04.239Z,93404.03
2023-01-17T02:29:34.617Z,93417.44
2023-01-17T02:30:45.412Z,93410.59
2023-01-17T02:31:51.964Z,93405.44
2023-01-17T02:33:06.628Z,93406.44
2023-01-17T02:34:14.988Z,93401.41
2023-01-17T02:35:28.389Z,93403.03
2023-01-17T02:36:35.904Z,93406.25
2023-01-17T02:37:53.526Z,93402.06
2023-01-17T02:39:06.673Z,93403.88
2023-01-17T02:40:17.669Z,93413.22
2023-01-17T02:41:25.909Z,93397.13
2023-01-17T02:42:35.053Z,93403.88
2023-01-17T02:43:40.726Z,93401.16
2023-01-17T02:44:44.183Z,93401.06
2023-01-17T02:45:51.803Z,93395.16
2023-01-17T02:46:55.662Z,93406.09
2023-01-17T02:48:01.104Z,93402.56
2023-01-17T02:49:03.737Z,93405.03
2023-01-17T02:50:13.360Z,93399.22
2023-01-17T02:51:44.977Z,93403.56
2023-01-17T02:52:56.520Z,93402.81
2023-01-17T02:54:10.919Z,93408.81
2023-01-17T02:55:22.925Z,93405.34
2023-01-17T02:56:41.651Z,93410.28
2023-01-17T02:58:07.265Z,93404.03
2023-01-17T02:59:22.567Z,93399.94
2023-01-17T03:00:32.750Z,93400.78
2023-01-17T03:01:53.711Z,93406.91
2023-01-17T03:03:02.612Z,93402.00
2023-01-17T03:04:15.810Z,93405.44
2023-01-17T03:05:23.616Z,93407.00
2023-01-17T03:06:36.858Z,93406.84
2023-01-17T03:07:43.189Z,93400.19
2023-01-17T03:08:51.580Z,93405.19
2023-01-17T03:10:00.558Z,93413.59
2023-01-17T03:11:13.199Z,93406.75
2023-01-17T03:12:15.727Z,93412.00
2023-01-17T03:13:20.662Z,93403.56
2023-01-17T03:14:22.706Z,93409.63
2023-01-17T03:15:27.881Z,93408.81
2023-01-17T03:16:35.185Z,93403.56
2023-01-17T03:17:48.973Z,93397.72
2023-01-17T03:18:51.342Z,93411.34
2023-01-17T03:19:56.333Z,93414.72
2023-01-17T03:20:59.423Z,93417.34
2023-01-17T03:22:06.088Z,93419.97
2023-01-17T03:23:08.135Z,93410.59
2023-01-17T03:24:12.810Z,93415.53
2023-01-17T03:25:16.490Z,93410.97
2023-01-17T03:26:21.754Z,93419.50
2023-01-17T03:27:23.823Z,93418.03
2023-01-17T03:28:28.590Z,93413.75
2023-01-17T03:29:30.649Z,93415.38
2023-01-17T03:30:35.828Z,93419.59
2023-01-17T03:31:37.905Z,93414.56
2023-01-17T03:32:45.472Z,93418.09
2023-01-17T03:33:50.529Z,93415.53
2023-01-17T03:34:52.612Z,93414.06
2023-01-17T03:35:58.280Z,93422.69
2023-01-17T03:37:03.204Z,93419.31
2023-01-17T03:38:07.939Z,93419.31
2023-01-17T03:39:10.060Z,93416.03
2023-01-17T03:40:17.877Z,93425.22
2023-01-17T03:41:20.555Z,93419.16
2023-01-17T03:42:25.449Z,93420.63
2023-01-17T03:43:27.695Z,93418.31
2023-01-17T03:44:34.461Z,93415.69
2023-01-17T03:45:36.691Z,93422.59
2023-01-17T03:46:41.593Z,93411.84
2023-01-17T03:47:47.091Z,93417.91
2023-01-17T03:48:51.846Z,93421.53
2023-01-17T03:49:53.863Z,93421.59
2023-01-17T03:50:58.740Z,93422.44
2023-01-17T03:52:00.883Z,93429.69
2023-01-17T03:53:05.878Z,93423.75
2023-01-17T03:54:08.284Z,93423.75
2023-01-17T03:55:13.703Z,93424.34
2023-01-17T03:56:15.974Z,93426.00
2023-01-17T03:57:23.004Z,93422.69
2023-01-17T03:58:29.009Z,93429.13
2023-01-17T03:59:34.690Z,93425.81
2023-01-17T04:00:37.055Z,93426.41
2023-01-17T04:01:42.103Z,93424.78
2023-01-17T04:02:50.115Z,93429.88
2023-01-17T04:03:52.165Z,93420.34
2023-01-17T04:04:57.311Z,93421.00
2023-01-17T04:05:59.540Z,93420.66
2023-01-17T04:07:04.504Z,93413.75
2023-01-17T04:08:07.330Z,93423.97
2023-01-17T04:09:12.165Z,93416.41
2023-01-17T04:10:14.326Z,93422.16
2023-01-17T04:11:19.118Z,93421.75
2023-01-17T04:12:21.086Z,93423.63
2023-01-17T04:13:26.055Z,93418.53
2023-01-17T04:14:28.277Z,93416.72
2023-01-17T04:15:33.114Z,93420.03
2023-01-17T04:16:36.473Z,93414.94
2023-01-17T04:17:41.766Z,93414.00
2023-01-17T04:18:46.592Z,93413.84
2023-01-17T04:19:53.826Z,93415.56
2023-01-17T04:20:55.897Z,93416.56
2023-01-17T04:22:00.777Z,93415.50
2023-01-17T04:23:03.322Z,93417.31
2023-01-17T04:24:10.937Z,93409.84
2023-01-17T04:25:13.073Z,93412.38
2023-01-17T04:26:17.894Z,93416.56
2023-01-17T04:27:21.963Z,93412.44
2023-01-17T04:28:28.308Z,93409.34
2023-01-17T04:29:31.716Z,93406.03
2023-01-17T04:30:37.110Z,93406.31
2023-01-17T04:31:39.373Z,93401.38
2023-01-17T04:32:45.332Z,93402.19
2023-01-17T04:33:51.347Z,93405.50
2023-01-17T04:34:56.116Z,93405.06
2023-01-17T04:35:58.411Z,93407.13
2023-01-17T04:37:03.312Z,93411.47
2023-01-17T04:38:05.372Z,93404.75
2023-01-17T04:39:10.600Z,93416.72
2023-01-17T04:40:13.492Z,93417.47
2023-01-17T04:41:19.950Z,93414.75
2023-01-17T04:42:23.965Z,93426.91
2023-01-17T04:43:28.886Z,93431.03
2023-01-17T04:44:31.180Z,93439.34
2023-01-17T04:45:36.054Z,93440.09
2023-01-17T04:46:39.849Z,93449.19
2023-01-17T04:47:44.505Z,93444.34
2023-01-17T04:48:46.485Z,93443.72
2023-01-17T04:49:54.003Z,93436.09
2023-01-17T04:51:00.539Z,93436.09
2023-01-17T04:52:05.348Z,93453.69
2023-01-17T04:53:09.746Z,93451.38
2023-01-17T04:54:14.420Z,93446.13
2023-01-17T04:55:16.982Z,93438.56
2023-01-17T04:56:23.703Z,93435.59
2023-01-17T04:57:26.047Z,93424.91
2023-01-17T04:58:30.795Z,93433.19
2023-01-17T04:59:33.059Z,93428.69
2023-01-17T05:00:39.844Z,93432.59
2023-01-17T05:01:43.299Z,93427.69
2023-01-17T05:02:48.301Z,93429.34
2023-01-17T05:03:50.353Z,93432.06
2023-01-17T05:04:57.655Z,93431.94
2023-01-17T05:06:00.215Z,93428.81
2023-01-17T05:07:08.315Z,93427.50
2023-01-17T05:08:10.640Z,93428.31
2023-01-17T05:09:15.626Z,93425.19
2023-01-17T05:10:17.903Z,93437.47
2023-01-17T05:11:24.680Z,93430.38
2023-01-17T05:12:27.097Z,93436.44
2023-01-17T05:13:32.937Z,93437.28
2023-01-17T05:14:35.234Z,93442.44
2023-01-17T05:15:40.973Z,93444.22
2023-01-17T05:16:43.995Z,93437.72
2023-01-17T05:17:49.133Z,93444.00
2023-01-17T05:18:52.667Z,93445.34
2023-01-17T05:20:00.345Z,93436.81
2023-01-17T05:21:02.885Z,93441.47
2023-01-17T05:22:16.655Z,93441.53
2023-01-17T05:23:18.773Z,93446.25
2023-01-17T05:24:25.650Z,93438.53
2023-01-17T05:25:29.842Z,93444.53
2023-01-17T05:26:34.743Z,93445.56
2023-01-17T05:27:36.974Z,93451.25
2023-01-17T05:28:41.943Z,93452.25
2023-01-17T05:29:44.036Z,93445.41
2023-01-17T05:30:48.872Z,93438.22
2023-01-17T05:31:50.917Z,93445.16
2023-01-17T05:32:58.773Z,93453.63
2023-01-17T05:34:04.211Z,93451.22
2023-01-17T05:35:10.218Z,93445.22
2023-01-17T05:36:15.211Z,93446.03
2023-01-17T05:37:17.555Z,93448.38
2023-01-17T05:38:24.113Z,93443.50
2023-01-17T05:39:26.727Z,93454.44
2023-01-17T05:40:34.084Z,93448.13
2023-01-17T05:41:41.125Z,93454.44
2023-01-17T05:42:46.996Z,93454.59
2023-01-17T05:43:51.978Z,93456.13
2023-01-17T05:44:56.916Z,93455.22
2023-01-17T05:45:59.123Z,93454.59
2023-01-17T05:47:04.087Z,93451.28
2023-01-17T05:48:06.830Z,93452.63
2023-01-17T05:49:11.702Z,93444.03
2023-01-17T05:50:19.066Z,93446.69
2023-01-17T05:51:25.419Z,93439.75
2023-01-17T05:52:27.642Z,93443.59
2023-01-17T05:53:32.607Z,93445.53
2023-01-17T05:54:34.719Z,93442.63
2023-01-17T05:55:40.435Z,93445.28
2023-01-17T05:56:42.515Z,93447.16
2023-01-17T05:57:47.381Z,93445.53
2023-01-17T05:58:51.202Z,93452.53
2023-01-17T05:59:56.071Z,93451.16
2023-01-17T06:01:01.557Z,93444.84
2023-01-17T06:02:03.698Z,93453.69
2023-01-17T06:03:08.690Z,93448.03
2023-01-17T06:04:10.707Z,93454.88
2023-01-17T06:05:19.455Z,93448.16
2023-01-17T06:06:24.612Z,93452.97
2023-01-17T06:07:26.846Z,93449.81
2023-01-17T06:08:31.691Z,93450.75
2023-01-17T06:09:33.702Z,93446.06
2023-01-17T06:10:38.770Z,93447.44
2023-01-17T06:11:40.862Z,93446.97
2023-01-17T06:12:47.123Z,93444.16
2023-01-17T06:13:49.513Z,93445.97
2023-01-17T06:14:54.299Z,93442.66
2023-01-17T06:16:03.039Z,93437.56
2023-01-17T06:17:05.522Z,93435.09
2023-01-17T06:18:11.240Z,93438.38
2023-01-17T06:19:15.532Z,93430.25
2023-01-17T06:20:23.560Z,93427.69
2023-01-17T06:21:25.721Z,93422.53
2023-01-17T06:22:30.722Z,93421.38
2023-01-17T06:23:32.890Z,93415.03
2023-01-17T06:24:37.899Z,93418.44
2023-01-17T06:25:41.358Z,93413.66
2023-01-17T06:26:46.730Z,93412.03
2023-01-17T06:27:50.649Z,93413.28
2023-01-17T06:28:56.639Z,93415.56
2023-01-17T06:29:58.614Z,93415.06
2023-01-17T06:31:09.373Z,93406.56
2023-01-17T06:32:13.451Z,93410.13
2023-01-17T06:33:19.351Z,93419.66
2023-01-17T06:34:21.553Z,93424.41
2023-01-17T06:35:31.773Z,93421.88
2023-01-17T06:36:34.193Z,93422.63
2023-01-17T06:37:39.288Z,93409.16
2023-01-17T06:38:44.195Z,93414.00
2023-01-17T06:39:46.285Z,93416.25
2023-01-17T06:40:51.148Z,93405.34
2023-01-17T06:41:53.346Z,93407.75
2023-01-17T06:43:01.981Z,93406.44
2023-01-17T06:44:04.382Z,93405.06
2023-01-17T06:45:11.056Z,93405.47
2023-01-17T06:46:13.091Z,93404.88
2023-01-17T06:47:17.901Z,93412.00
2023-01-17T06:48:22.777Z,93419.72
2023-01-17T06:49:24.849Z,93422.66
2023-01-17T06:50:32.704Z,93423.75
2023-01-17T06:51:37.652Z,93423.19
2023-01-17T06:52:39.934Z,93428.38
2023-01-17T06:53:46.010Z,93428.47
2023-01-17T06:54:50.680Z,93420.19
2023-01-17T06:55:56.358Z,93426.97
2023-01-17T06:57:06.030Z,93432.19
2023-01-17T06:58:09.797Z,93430.75
2023-01-17T06:59:14.570Z,93437.03
2023-01-17T07:00:20.329Z,93432.25
2023-01-17T07:01:25.412Z,93445.19
2023-01-17T07:02:27.689Z,93434.47
2023-01-17T07:03:32.345Z,93439.84
2023-01-17T07:04:37.869Z,93445.13
2023-01-17T07:05:42.683Z,93444.50
2023-01-17T07:06:47.536Z,93442.19
2023-01-17T07:07:49.622Z,93439.09
2023-01-17T07:08:55.570Z,93445.09
2023-01-17T07:09:57.830Z,93447.78
2023-01-17T07:11:04.321Z,93448.72
2023-01-17T07:12:09.931Z,93440.34
2023-01-17T07:13:12.338Z,93446.47
2023-01-17T07:14:17.489Z,93444.13
2023-01-17T07:15:19.484Z,93441.72
2023-01-17T07:16:24.846Z,93440.03
2023-01-17T07:17:29.703Z,93437.63
2023-01-17T07:18:34.786Z,93440.16
2023-01-17T07:19:36.819Z,93439.38
2023-01-17T07:20:45.778Z,93436.84
2023-01-17T07:21:53.427Z,93434.13
2023-01-17T07:22:55.669Z,93434.75
2023-01-17T07:24:00.543Z,93429.66
2023-01-17T07:25:02.558Z,93431.06
2023-01-17T07:26:07.704Z,93421.81
2023-01-17T07:27:13.031Z,93418.47
2023-01-17T07:28:19.137Z,93417.69
2023-01-17T07:29:26.550Z,93418.34
2023-01-17T07:30:28.857Z,93411.66
2023-01-17T07:31:35.636Z,93406.63
2023-01-17T07:32:37.638Z,93411.66
2023-01-17T07:33:42.659Z,93411.66
2023-01-17T07:34:44.725Z,93414.06
2023-01-17T07:35:52.169Z,93409.00
2023-01-17T07:36:54.825Z,93412.34
2023-01-17T07:37:59.729Z,93405.63
2023-01-17T07:39:02.063Z,93403.97
2023-01-17T07:40:07.891Z,93402.22
2023-01-17T07:41:13.486Z,93408.91
2023-01-17T07:42:15.757Z,93404.78
2023-01-17T07:43:20.812Z,93403.94
2023-01-17T07:44:26.975Z,93397.16
2023-01-17T07:45:33.488Z,93398.75
2023-01-17T07:46:36.341Z,93394.56
2023-01-17T07:47:41.914Z,93392.78
2023-01-17T07:48:47.963Z,93390.13
2023-01-17T07:49:50.326Z,93395.97
2023-01-17T07:50:59.656Z,93395.84
2023-01-17T07:52:04.572Z,93391.59
2023-01-17T07:53:09.516Z,93397.31
2023-01-17T07:54:14.675Z,93396.31
2023-01-17T07:55:16.982Z,93391.97
2023-01-17T07:56:21.820Z,93395.13
2023-01-17T07:57:24.168Z,93393.25
2023-01-17T07:58:28.987Z,93393.00
2023-01-17T07:59:31.143Z,93387.69
2023-01-17T08:00:38.111Z,93387.56
2023-01-17T08:01:40.338Z,93385.66
2023-01-17T08:02:45.342Z,93385.47
2023-01-17T08:03:55.030Z,93386.94
2023-01-17T08:04:59.573Z,93376.66
2023-01-17T08:06:07.632Z,93371.34
2023-01-17T08:07:09.772Z,93376.16
2023-01-17T08:08:15.947Z,93368.28
2023-01-17T08:09:21.822Z,93368.00
2023-01-17T08:10:26.858Z,93372.09
2023-01-17T08:11:31.684Z,93365.84
2023-01-17T08:12:34.231Z,93366.47
2023-01-17T08:13:39.290Z,93363.75
2023-01-17T08:14:44.685Z,93361.91
2023-01-17T08:15:48.481Z,93362.53
2023-01-17T08:16:53.558Z,93362.25
2023-01-17T08:17:57.762Z,93367.91
2023-01-17T08:19:02.657Z,93358.81
2023-01-17T08:20:06.569Z,93358.34
2023-01-17T08:21:18.586Z,93359.59
2023-01-17T08:22:20.675Z,93354.03
2023-01-17T08:23:26.533Z,93356.94
2023-01-17T08:24:28.572Z,93358.19
2023-01-17T08:25:35.416Z,93360.28
2023-01-17T08:26:37.693Z,93359.84
2023-01-17T08:27:42.533Z,93363.59
2023-01-17T08:28:47.423Z,93362.13
2023-01-17T08:29:52.536Z,93369.75
2023-01-17T08:30:54.584Z,93370.94
2023-01-17T08:31:59.507Z,93373.84
2023-01-17T08:33:06.789Z,93372.50
2023-01-17T08:34:11.611Z,93369.50
2023-01-17T08:35:14.301Z,93367.16
2023-01-17T08:36:22.256Z,93369.28
2023-01-17T08:37:24.663Z,93371.94
2023-01-17T08:38:29.731Z,93370.09
2023-01-17T08:39:33.762Z,93371.41
2023-01-17T08:40:39.672Z,93363.44
2023-01-17T08:41:45.063Z,93366.00
2023-01-17T08:42:57.045Z,93366.66
2023-01-17T08:43:59.049Z,93369.16
2023-01-17T08:45:03.952Z,93374.16
2023-01-17T08:46:08.968Z,93372.91
2023-01-17T08:47:11.387Z,93369.53
2023-01-17T08:48:16.020Z,93367.66
2023-01-17T08:49:21.380Z,93371.34
2023-01-17T08:50:27.114Z,93366.38
2023-01-17T08:51:33.052Z,93357.19
2023-01-17T08:52:38.248Z,93354.50
2023-01-17T08:53:43.685Z,93356.69
2023-01-17T08:54:45.826Z,93349.91
2023-01-17T08:55:51.697Z,93350.25
2023-01-17T08:56:56.814Z,93346.41
2023-01-17T08:57:59.495Z,93346.50
2023-01-17T08:59:04.822Z,93344.66
2023-01-17T09:00:11.491Z,93343.66
2023-01-17T09:01:17.012Z,93338.06
2023-01-17T09:02:25.077Z,93333.88
2023-01-17T09:03:30.838Z,93337.78
2023-01-17T09:04:33.206Z,93333.34
2023-01-17T09:05:38.427Z,93331.81
2023-01-17T09:06:48.978Z,93338.22
2023-01-17T09:07:53.853Z,93342.84
2023-01-17T09:09:00.033Z,93344.63
2023-01-17T09:10:05.568Z,93349.41
2023-01-17T09:11:13.113Z,93347.88
2023-01-17T09:12:18.250Z,93351.16
2023-01-17T09:13:24.376Z,93345.69
2023-01-17T09:14:30.024Z,93341.31
2023-01-17T09:15:38.396Z,93335.91
2023-01-17T09:16:45.651Z,93342.34
2023-01-17T09:17:53.010Z,93330.72
2023-01-17T09:18:58.597Z,93332.34
2023-01-17T09:20:03.720Z,93334.59
2023-01-17T09:21:23.610Z,93333.53
2023-01-17T09:22:36.156Z,93338.94
2023-01-17T09:23:42.616Z,93333.09
2023-01-17T09:24:51.377Z,93334.34
2023-01-17T09:26:02.070Z,93334.59
2023-01-17T09:27:07.529Z,93334.34
2023-01-17T09:28:16.178Z,93328.69
2023-01-17T09:29:21.709Z,93326.03
2023-01-17T09:30:31.006Z,93330.25
2023-01-17T09:31:36.483Z,93330.28
2023-01-17T09:32:44.441Z,93320.34
2023-01-17T09:33:53.395Z,93321.03
2023-01-17T09:35:04.899Z,93308.56
2023-01-17T09:36:13.936Z,93313.72
2023-01-17T09:37:19.152Z,93308.78
2023-01-17T09:38:26.944Z,93301.88
2023-01-17T09:39:34.283Z,93292.28
2023-01-17T09:40:46.643Z,93288.13
2023-01-17T09:42:01.711Z,93289.88
2023-01-17T09:43:10.662Z,93283.06
2023-01-17T09:44:27.733Z,93281.75
2023-01-17T09:45:35.185Z,93264.09
2023-01-17T09:46:45.804Z,93257.13
2023-01-17T09:47:55.757Z,93250.00
2023-01-17T09:49:17.408Z,93249.63
2023-01-17T09:50:35.006Z,93244.41
2023-01-17T09:51:37.599Z,93236.38
2023-01-17T09:52:42.679Z,93233.81
2023-01-17T09:53:55.327Z,93235.88
2023-01-17T09:55:00.657Z,93231.84
2023-01-17T09:56:08.438Z,93234.78
2023-01-17T09:57:39.359Z,93235.59
2023-01-17T09:58:48.543Z,93233.28
2023-01-17T10:00:03.775Z,93230.53
2023-01-17T10:01:18.715Z,93233.31
2023-01-17T10:02:51.577Z,93227.28
2023-01-17T10:04:15.206Z,93231.34
2023-01-17T10:05:32.990Z,93229.50
2023-01-17T10:06:52.169Z,93236.19
2023-01-17T10:08:12.776Z,93223.69
2023-01-17T10:09:35.958Z,93213.19
2023-01-17T10:10:45.822Z,93217.47
2023-01-17T10:12:10.231Z,93212.72
2023-01-17T10:13:36.342Z,93212.78
2023-01-17T10:15:04.855Z,93208.31
2023-01-17T10:16:38.163Z,93212.22
2023-01-17T10:17:51.426Z,93209.94
2023-01-17T10:19:27.176Z,93206.94
2023-01-17T10:20:47.409Z,93214.50
2023-01-17T10:22:06.005Z,93215.28
2023-01-17T10:23:35.029Z,93206.69
2023-01-17T10:25:29.141Z,93206.75
2023-01-17T10:26:42.671Z,93199.88
2023-01-17T10:28:04.419Z,93190.75
2023-01-17T10:29:20.144Z,93197.75
2023-01-17T10:30:31.239Z,93193.38
2023-01-17T10:31:43.890Z,93190.09
2023-01-17T10:32:52.253Z,93194.06
2023-01-17T10:34:03.928Z,93200.91
2023-01-17T10:35:20.521Z,93192.34
2023-01-17T10:36:28.280Z,93186.88
2023-01-17T10:37:43.751Z,93191.66
2023-01-17T10:38:50.954Z,93177.47
2023-01-17T10:39:58.998Z,93176.94
2023-01-17T10:41:11.817Z,93178.03
2023-01-17T10:42:22.906Z,93183.50
2023-01-17T10:43:31.149Z,93188.47
2023-01-17T10:44:40.662Z,93192.22
2023-01-17T10:45:52.056Z,93195.09
2023-01-17T10:47:01.285Z,93202.50
2023-01-17T10:48:11.937Z,93198.19
2023-01-17T10:49:20.276Z,93194.03
2023-01-17T10:50:24.275Z,93194.28
2023-01-17T10:51:51.564Z,93190.13
2023-01-17T10:53:04.026Z,93183.88
2023-01-17T10:54:16.356Z,93180.66
2023-01-17T10:55:34.435Z,93167.00
2023-01-17T10:56:40.853Z,93164.66
2023-01-17T10:57:47.425Z,93164.88
2023-01-17T10:58:56.874Z,93164.25
2023-01-17T11:00:00.619Z,93167.47
2023-01-17T11:01:15.769Z,93159.56
2023-01-17T11:02:27.488Z,93160.44
2023-01-17T11:03:32.212Z,93154.31
2023-01-17T11:04:36.838Z,93163.56
2023-01-17T11:05:45.046Z,93155.94
2023-01-17T11:06:57.833Z,93149.09
2023-01-17T11:08:04.501Z,93150.25
2023-01-17T11:09:11.862Z,93147.34
2023-01-17T11:10:39.855Z,93149.97
2023-01-17T11:11:53.512Z,93152.38
2023-01-17T11:12:55.626Z,93153.09
2023-01-17T11:14:02.251Z,93153.34
2023-01-17T11:15:19.861Z,93144.16
2023-01-17T11:16:27.715Z,93147.59
2023-01-17T11:17:31.019Z,93146.91
2023-01-17T11:18:37.843Z,93140.75
2023-01-17T11:19:40.600Z,93143.22
2023-01-17T11:20:45.991Z,93150.25
2023-01-17T11:21:53.919Z,93148.00
2023-01-17T11:23:10.492Z,93148.53
2023-01-17T11:24:23.152Z,93152.84
2023-01-17T11:25:25.497Z,93149.03
2023-01-17T11:26:32.981Z,93159.09
2023-01-17T11:27:42.884Z,93149.44
2023-01-17T11:28:49.664Z,93145.13
2023-01-17T11:30:07.440Z,93154.28
2023-01-17T11:31:27.973Z,93157.47
2023-01-17T11:32:32.696Z,93153.94
2023-01-17T11:33:46.092Z,93146.72
2023-01-17T11:35:09.206Z,93141.47
2023-01-17T11:36:24.900Z,93135.38
2023-01-17T11:37:29.028Z,93129.44
2023-01-17T11:38:33.639Z,93133.88
2023-01-17T11:39:35.837Z,93130.41
2023-01-17T11:40:43.237Z,93128.09
2023-01-17T11:41:47.826Z,93137.13
2023-01-17T11:43:03.074Z,93136.75
2023-01-17T11:44:24.888Z,93135.44
2023-01-17T11:45:28.991Z,93125.94
2023-01-17T11:46:33.744Z,93118.91
2023-01-17T11:47:35.801Z,93106.31
2023-01-17T11:48:41.641Z,93106.38
2023-01-17T11:49:51.537Z,93111.69
2023-01-17T11:50:57.183Z,93103.88
2023-01-17T11:52:03.953Z,93103.94
2023-01-17T11:53:07.839Z,93104.34
2023-01-17T11:54:20.933Z,93111.47
2023-01-17T11:55:26.157Z,93105.59
2023-01-17T11:56:36.587Z,93110.44
2023-01-17T11:57:38.896Z,93109.97
2023-01-17T11:58:47.319Z,93109.81
2023-01-17T11:59:52.966Z,93105.94
2023-01-17T12:01:01.078Z,93110.44
2023-01-17T12:02:35.910Z,93104.84
2023-01-17T12:04:08.259Z,93096.91
2023-01-17T12:05:28.043Z,93094.78
2023-01-17T12:06:56.803Z,93097.47
2023-01-17T12:08:10.112Z,93086.50
2023-01-17T12:09:25.639Z,93085.97
2023-01-17T12:10:35.893Z,93082.53
2023-01-17T12:12:10.438Z,93085.41
2023-01-17T12:13:36.576Z,93072.28
2023-01-17T12:14:55.896Z,93074.44
2023-01-17T12:16:30.839Z,93066.69
2023-01-17T12:17:53.640Z,93063.03
2023-01-17T12:19:24.697Z,93072.47
2023-01-17T12:20:41.542Z,93081.63
2023-01-17T12:21:58.410Z,93074.03
2023-01-17T12:23:19.293Z,93075.22
2023-01-17T12:24:41.404Z,93087.09
2023-01-17T12:25:58.330Z,93082.56
2023-01-17T12:27:11.370Z,93089.44
2023-01-17T12:28:50.271Z,93090.09
2023-01-17T12:30:11.906Z,93099.91
2023-01-17T12:31:29.363Z,93102.50
2023-01-17T12:32:53.502Z,93099.88
2023-01-17T12:34:02.615Z,93088.78
2023-01-17T12:35:15.187Z,93094.38
2023-01-17T12:36:35.173Z,93095.00
2023-01-17T12:37:42.522Z,93092.22
2023-01-17T12:38:50.154Z,93085.72
2023-01-17T12:39:59.998Z,93098.25
2023-01-17T12:41:09.790Z,93092.88
2023-01-17T12:42:18.733Z,93085.53
2023-01-17T12:43:28.480Z,93098.97
2023-01-17T12:44:47.423Z,93084.53
2023-01-17T12:45:57.398Z,93084.06
2023-01-17T12:47:03.561Z,93087.22
2023-01-17T12:48:13.617Z,93082.78
2023-01-17T12:49:23.775Z,93096.38
2023-01-17T12:50:37.549Z,93088.78
2023-01-17T12:51:47.448Z,93090.25
2023-01-17T12:53:01.249Z,93089.19
2023-01-17T12:54:15.379Z,93080.34
2023-01-17T12:55:22.453Z,93073.28
2023-01-17T12:56:32.783Z,93080.06
2023-01-17T12:57:43.337Z,93067.31
2023-01-17T12:58:53.153Z,93076.28
2023-01-17T13:00:05.094Z,93074.66
2023-01-17T13:01:22.716Z,93066.50
2023-01-17T13:02:38.074Z,93057.97
2023-01-17T13:03:57.661Z,93056.75
2023-01-17T13:05:11.666Z,93054.00
2023-01-17T13:06:25.040Z,93058.34
2023-01-17T13:07:40.667Z,93056.69
2023-01-17T13:08:49.715Z,93059.09
2023-01-17T13:10:01.849Z,93058.00
2023-01-17T13:11:12.120Z,93051.84
2023-01-17T13:12:19.833Z,93048.69
2023-01-17T13:13:24.286Z,93045.97
2023-01-17T13:14:28.879Z,93049.72
2023-01-17T13:15:37.839Z,93037.81
2023-01-17T13:16:50.134Z,93040.75
2023-01-17T13:18:01.419Z,93041.00
2023-01-17T13:19:17.808Z,93038.31
2023-01-17T13:20:27.101Z,93038.50
2023-01-17T13:21:30.940Z,93040.81
2023-01-17T13:22:39.248Z,93045.00
2023-01-17T13:23:59.509Z,93050.06
2023-01-17T13:25:15.984Z,93039.41
2023-01-17T13:26:31.175Z,93042.41
2023-01-17T13:28:03.638Z,93034.91